Time;durP1;ratioP1;P1;durP2;ratioP2;P2;SDS_P1;SDS_P2;PMS_P1;PMS_P2;Temp;Humidity;BMP_temperature;BMP_pressure;BME280_temperature;BME280_humidity;BME280_pressure;Samples;Min_cycle;Max_cycle;Signal;HPM_P1;HPM_P2
2023/05/15 00:00:54;;;;;;;8.38;6.05;;;;;;;15.64;60.04;98985.44;4471175;32;20159;-87
2023/05/15 00:03:20;;;;;;;7.32;6.12;;;;;;;15.67;60.04;98989.63;4483912;32;20112;-88
2023/05/15 00:05:45;;;;;;;9.10;6.05;;;;;;;15.72;60.04;98979.69;4457901;32;20138;-87
2023/05/15 00:08:10;;;;;;;9.85;6.60;;;;;;;15.55;60.02;98975.50;4484056;32;20399;-87
2023/05/15 00:10:36;;;;;;;8.38;6.28;;;;;;;15.72;60.04;98977.91;4483746;32;22979;-87
2023/05/15 00:13:01;;;;;;;8.70;5.82;;;;;;;15.68;60.03;98986.06;4457087;32;27885;-87
2023/05/15 00:15:27;;;;;;;11.85;6.90;;;;;;;15.77;60.03;98988.94;4470931;32;20096;-87
2023/05/15 00:17:52;;;;;;;9.52;6.05;;;;;;;15.77;60.03;98991.56;4470823;32;20140;-87
2023/05/15 00:20:18;;;;;;;9.93;6.43;;;;;;;15.71;60.04;99002.47;4484052;32;20116;-86
2023/05/15 00:22:43;;;;;;;7.18;6.18;;;;;;;15.85;60.04;99006.78;4470995;32;20345;-87
2023/05/15 00:25:09;;;;;;;10.60;5.97;;;;;;;15.77;60.04;99003.84;4483637;32;23492;-87
2023/05/15 00:27:35;;;;;;;9.45;6.28;;;;;;;15.71;60.04;99012.09;4484744;32;20123;-86
2023/05/15 00:30:00;;;;;;;9.23;6.97;;;;;;;15.70;60.04;99019.13;4466356;32;20201;-88
2023/05/15 00:32:26;;;;;;;7.37;6.28;;;;;;;15.69;60.03;99014.00;4471045;32;20119;-88
2023/05/15 00:34:51;;;;;;;11.25;7.07;;;;;;;15.79;60.05;99004.56;4458071;32;20116;-89
2023/05/15 00:37:16;;;;;;;10.45;6.93;;;;;;;15.70;60.04;98999.94;4483897;32;20480;-87
2023/05/15 00:39:42;;;;;;;9.13;6.80;;;;;;;15.74;60.04;99004.88;4484064;32;20156;-86
2023/05/15 00:42:07;;;;;;;8.63;6.78;;;;;;;15.59;60.03;98993.56;4483449;32;23149;-87
2023/05/15 00:44:33;;;;;;;8.55;6.60;;;;;;;15.74;60.04;98997.00;4470542;32;20147;-87
2023/05/15 00:46:58;;;;;;;8.77;7.25;;;;;;;15.73;60.04;98991.84;4457557;32;20116;-86
2023/05/15 00:49:25;;;;;;;11.40;7.32;;;;;;;15.67;60.04;99000.13;4457698;32;20427;-87
2023/05/15 00:51:51;;;;;;;12.37;7.93;;;;;;;15.77;60.04;98985.47;4471142;32;20092;-87
2023/05/15 00:54:16;;;;;;;10.00;7.43;;;;;;;15.72;60.04;98982.31;4470539;32;20108;-87
2023/05/15 00:56:44;;;;;;;11.57;7.87;;;;;;;15.80;60.04;98985.25;4469977;32;20150;-88
2023/05/15 00:59:09;;;;;;;10.55;7.40;;;;;;;15.87;60.05;98979.53;4485086;31;20088;-88
2023/05/15 01:01:34;;;;;;;10.38;7.45;;;;;;;15.78;60.04;98974.03;4470651;32;20085;-88
2023/05/15 01:04:03;;;;;;;13.20;7.78;;;;;;;15.82;60.05;98972.87;4483856;32;20532;-88
2023/05/15 01:06:29;;;;;;;11.65;7.90;;;;;;;15.93;60.05;98965.16;4483841;32;20117;-87
2023/05/15 01:08:55;;;;;;;9.80;7.32;;;;;;;15.81;60.04;98956.28;4470847;32;20093;-87
2023/05/15 01:11:21;;;;;;;11.20;7.55;;;;;;;15.92;60.04;98948.56;4470398;32;20137;-87
2023/05/15 01:13:46;;;;;;;11.90;8.57;;;;;;;15.74;60.04;98944.53;4483724;32;20159;-87
2023/05/15 01:16:12;;;;;;;11.57;8.40;;;;;;;15.82;60.04;98936.97;4470340;32;20139;-86
2023/05/15 01:18:37;;;;;;;10.10;8.00;;;;;;;15.87;60.05;98944.56;4482659;32;36258;-86
2023/05/15 01:21:09;;;;;;;10.70;7.78;;;;;;;15.86;60.04;98937.66;4483632;32;20072;-87
2023/05/15 01:23:59;;;;;;;11.60;8.07;;;;;;;15.91;60.04;98936.38;4483628;32;20159;-88
2023/05/15 01:27:02;;;;;;;11.52;8.38;;;;;;;15.88;60.05;98922.62;4483450;32;20100;-86
2023/05/15 01:29:43;;;;;;;11.93;8.07;;;;;;;15.88;60.05;98927.88;4484006;32;20496;-89
2023/05/15 01:32:11;;;;;;;14.00;8.85;;;;;;;15.74;60.04;98930.56;4470913;32;20088;-87
2023/05/15 01:35:00;;;;;;;13.10;8.77;;;;;;;15.85;60.04;98926.31;4471089;32;20089;-88
2023/05/15 01:37:26;;;;;;;10.73;8.32;;;;;;;15.84;60.04;98934.25;4479551;32;20524;-88
2023/05/15 01:39:53;;;;;;;12.35;8.70;;;;;;;15.72;60.04;98928.03;4470608;32;20573;-88
2023/05/15 01:42:18;;;;;;;10.95;8.80;;;;;;;15.78;60.03;98926.78;4470426;32;20157;-88
2023/05/15 01:44:50;;;;;;;13.43;8.65;;;;;;;15.69;60.03;98924.78;4456712;32;27940;-88
2023/05/15 01:47:18;;;;;;;12.45;9.23;;;;;;;15.53;60.02;98936.25;4470916;32;20498;-89
2023/05/15 01:49:44;;;;;;;12.65;8.70;;;;;;;15.63;60.04;98934.75;4472098;32;20118;-87
2023/05/15 01:52:13;;;;;;;14.73;9.02;;;;;;;15.68;60.03;98934.44;4491718;32;20088;-88
2023/05/15 01:54:39;;;;;;;12.27;8.93;;;;;;;15.73;60.04;98928.88;4482790;32;20130;-89
2023/05/15 01:57:05;;;;;;;12.75;8.50;;;;;;;15.62;60.03;98926.97;4469477;32;20101;-88
2023/05/15 01:59:30;;;;;;;16.77;9.45;;;;;;;15.59;60.03;98930.62;4471449;32;20151;-88
2023/05/15 02:01:56;;;;;;;13.85;9.05;;;;;;;15.53;60.02;98931.00;4472121;32;20122;-88
2023/05/15 02:04:21;;;;;;;15.32;9.82;;;;;;;15.68;60.03;98930.97;4485266;32;20128;-87
2023/05/15 02:06:49;;;;;;;14.05;9.70;;;;;;;15.68;60.03;98944.94;4457974;32;35159;-87
2023/05/15 02:09:14;;;;;;;12.93;8.95;;;;;;;15.70;60.04;98948.31;4472232;32;20114;-87
2023/05/15 02:11:39;;;;;;;10.30;8.43;;;;;;;15.55;60.02;98944.84;4470994;32;28251;-88
2023/05/15 02:14:05;;;;;;;13.48;9.50;;;;;;;15.60;60.03;98953.28;4471862;32;20164;-87
2023/05/15 02:16:30;;;;;;;20.90;10.02;;;;;;;15.68;60.03;98962.47;4471946;32;20104;-88
2023/05/15 02:18:56;;;;;;;11.98;9.13;;;;;;;15.73;60.04;98976.12;4484443;32;25717;-87
2023/05/15 02:21:21;;;;;;;14.13;9.27;;;;;;;15.82;60.04;98978.97;4484951;32;20472;-87
2023/05/15 02:23:47;;;;;;;17.60;9.88;;;;;;;15.85;60.04;98983.16;4471957;32;20104;-87
2023/05/15 02:26:31;;;;;;;15.15;9.77;;;;;;;15.72;60.04;98983.16;4471618;32;20093;-88
2023/05/15 02:29:18;;;;;;;12.55;8.82;;;;;;;15.77;60.03;98988.94;4484517;32;20103;-88
2023/05/15 02:32:09;;;;;;;12.60;8.73;;;;;;;15.86;60.04;98990.13;4459454;32;20114;-87
2023/05/15 02:34:56;;;;;;;11.88;9.30;;;;;;;15.82;60.04;98986.84;4473402;32;20126;-89
2023/05/15 02:37:26;;;;;;;16.67;10.43;;;;;;;15.94;60.05;98983.41;4484694;32;20103;-87
2023/05/15 02:39:53;;;;;;;14.87;9.77;;;;;;;15.73;60.04;98984.81;4484881;32;20114;-88
2023/05/15 02:42:18;;;;;;;13.40;9.63;;;;;;;15.81;60.04;98971.19;4471783;32;20089;-88
2023/05/15 02:44:44;;;;;;;15.35;10.02;;;;;;;15.73;60.04;98973.50;4458599;32;20120;-90
2023/05/15 02:47:09;;;;;;;16.40;10.80;;;;;;;15.69;60.03;98964.16;4458700;32;20163;-90
2023/05/15 02:49:35;;;;;;;15.70;11.10;;;;;;;15.70;60.03;98963.19;4479388;32;20119;-89
2023/05/15 02:52:00;;;;;;;19.62;9.98;;;;;;;15.71;60.04;98964.87;4466362;32;20096;-88
2023/05/15 02:54:25;;;;;;;14.98;10.32;;;;;;;15.67;60.03;98966.88;4470932;32;32081;-89
2023/05/15 02:56:51;;;;;;;13.13;10.18;;;;;;;15.72;60.04;98963.94;4458487;32;20136;-89
2023/05/15 02:59:18;;;;;;;16.10;10.82;;;;;;;15.71;60.04;98952.59;4484303;32;25595;-89
2023/05/15 03:01:45;;;;;;;17.80;9.85;;;;;;;15.75;60.04;98956.69;4466028;32;20087;-90
2023/05/15 03:04:12;;;;;;;13.50;10.52;;;;;;;15.66;60.03;98952.06;4469493;32;20065;-89
2023/05/15 03:06:38;;;;;;;14.07;10.43;;;;;;;15.77;60.03;98949.56;4461440;32;20100;-89
2023/05/15 03:09:03;;;;;;;24.23;10.75;;;;;;;15.82;60.04;98947.47;4471748;32;20163;-88
2023/05/15 03:11:28;;;;;;;14.87;10.50;;;;;;;15.74;60.04;98936.66;4461776;32;21506;-88
2023/05/15 03:13:54;;;;;;;22.92;10.85;;;;;;;15.80;60.04;98940.66;4463851;32;20172;-88
2023/05/15 03:16:19;;;;;;;13.93;9.23;;;;;;;15.83;60.04;98925.53;4460506;32;20425;-90
2023/05/15 03:18:45;;;;;;;18.83;10.20;;;;;;;15.89;60.05;98912.03;4458355;32;21818;-90
2023/05/15 03:21:11;;;;;;;14.45;10.43;;;;;;;15.93;60.04;98903.00;4455859;32;20124;-90
2023/05/15 03:23:36;;;;;;;13.00;10.32;;;;;;;15.88;60.05;98902.47;4478980;32;20152;-89
2023/05/15 03:26:02;;;;;;;14.87;10.35;;;;;;;15.90;60.04;98910.25;4471422;32;20490;-89
2023/05/15 03:28:27;;;;;;;24.65;10.63;;;;;;;15.74;60.04;98914.81;4470961;32;20184;-89
2023/05/15 03:30:53;;;;;;;16.65;10.60;;;;;;;15.80;60.04;98896.03;4484320;32;20479;-89
2023/05/15 03:33:18;;;;;;;17.73;11.27;;;;;;;16.14;60.06;98895.47;4471253;32;20188;-88
2023/05/15 03:35:44;;;;;;;14.50;10.82;;;;;;;15.76;60.04;98889.31;4483245;32;29791;-89
2023/05/15 03:38:09;;;;;;;15.57;10.93;;;;;;;15.85;60.04;98894.81;4471225;32;20123;-88
2023/05/15 03:40:37;;;;;;;21.17;11.23;;;;;;;15.92;60.04;98900.47;4471000;32;20449;-89
2023/05/15 03:43:02;;;;;;;16.55;10.60;;;;;;;15.74;60.04;98902.53;4458191;32;20138;-88
2023/05/15 03:45:28;;;;;;;16.08;11.12;;;;;;;16.02;60.05;98891.03;4470872;32;20488;-89
2023/05/15 03:47:53;;;;;;;15.68;10.75;;;;;;;15.98;60.05;98896.59;4470893;32;20168;-87
2023/05/15 03:50:19;;;;;;;19.85;11.50;;;;;;;15.91;60.05;98893.56;4483765;32;20124;-88
2023/05/15 03:52:44;;;;;;;15.00;10.30;;;;;;;16.13;60.06;98888.53;4484149;32;20108;-87
2023/05/15 03:55:10;;;;;;;17.05;11.30;;;;;;;16.05;60.05;98887.34;4470935;32;20128;-87
2023/05/15 03:57:35;;;;;;;15.00;11.60;;;;;;;15.80;60.04;98904.75;4470381;32;30400;-87
2023/05/15 04:00:02;;;;;;;14.73;10.68;;;;;;;15.79;60.05;98892.56;4484030;32;20195;-86
2023/05/15 04:02:28;;;;;;;17.65;11.32;;;;;;;16.18;60.06;98877.72;4483856;32;20589;-89
2023/05/15 04:04:53;;;;;;;16.50;10.85;;;;;;;16.28;60.07;98865.59;4479700;32;20483;-88
2023/05/15 04:07:19;;;;;;;15.35;10.75;;;;;;;16.33;60.07;98855.66;4468276;32;20448;-87
2023/05/15 04:09:44;;;;;;;19.50;11.12;;;;;;;16.29;60.06;98862.03;4466916;32;20093;-87
2023/05/15 04:12:09;;;;;;;22.00;11.48;;;;;;;16.41;60.07;98863.81;4478698;32;20523;-87
2023/05/15 04:14:35;;;;;;;16.73;11.88;;;;;;;16.17;60.06;98862.91;4470253;32;20173;-87
2023/05/15 04:17:00;;;;;;;19.20;11.43;;;;;;;16.21;60.06;98856.47;4483880;32;20111;-87
2023/05/15 04:19:26;;;;;;;16.42;11.68;;;;;;;16.42;60.08;98857.63;4470729;32;20119;-88
2023/05/15 04:21:51;;;;;;;15.68;10.80;;;;;;;16.21;60.06;98856.47;4482855;32;20733;-87
2023/05/15 04:24:16;;;;;;;17.73;11.68;;;;;;;16.14;60.06;98860.50;4483821;32;20145;-86
2023/05/15 04:26:42;;;;;;;15.43;10.35;;;;;;;16.01;60.06;98857.84;4470344;32;20161;-86
2023/05/15 04:29:08;;;;;;;17.05;10.93;;;;;;;15.98;60.05;98865.09;4480447;32;20148;-87
2023/05/15 04:31:33;;;;;;;14.70;11.25;;;;;;;16.04;60.05;98873.37;4464639;32;20119;-87
2023/05/15 04:33:59;;;;;;;16.17;10.23;;;;;;;16.13;60.06;98883.28;4474649;32;20127;-88
2023/05/15 04:36:24;;;;;;;18.87;11.60;;;;;;;16.16;60.05;98892.72;4487521;32;20369;-87
2023/05/15 04:38:50;;;;;;;19.77;11.90;;;;;;;16.23;60.06;98897.44;4484990;32;20268;-87
2023/05/15 04:41:16;;;;;;;16.83;11.73;;;;;;;16.17;60.07;98904.91;4484150;32;20119;-87
2023/05/15 04:43:41;;;;;;;17.40;10.98;;;;;;;16.29;60.06;98904.06;4483771;32;20116;-89
2023/05/15 04:46:07;;;;;;;20.88;11.98;;;;;;;16.35;60.07;98903.66;4470629;32;20084;-86
2023/05/15 04:48:32;;;;;;;21.17;13.23;;;;;;;16.47;60.08;98900.16;4469995;32;20364;-86
2023/05/15 04:50:58;;;;;;;20.77;12.80;;;;;;;16.40;60.08;98911.22;4462729;32;28601;-86
2023/05/15 04:53:23;;;;;;;21.87;13.10;;;;;;;16.43;60.07;98921.50;4483840;32;20144;-86
2023/05/15 04:55:50;;;;;;;21.37;12.40;;;;;;;16.45;60.08;98927.47;4483762;32;20088;-87
2023/05/15 04:58:16;;;;;;;24.17;13.32;;;;;;;16.43;60.07;98932.00;4470721;32;20111;-87
2023/05/15 05:00:41;;;;;;;20.35;12.88;;;;;;;16.45;60.08;98935.38;4470490;32;20093;-87
2023/05/15 05:03:06;;;;;;;22.30;12.98;;;;;;;16.40;60.08;98942.72;4482999;32;22496;-87
2023/05/15 05:05:32;;;;;;;23.12;13.57;;;;;;;16.39;60.07;98941.03;4482793;32;33220;-87
2023/05/15 05:07:57;;;;;;;20.90;13.68;;;;;;;16.37;60.07;98935.06;4483631;32;20458;-87
2023/05/15 05:10:23;;;;;;;22.73;14.30;;;;;;;16.55;60.08;98931.97;4470459;32;20524;-86
2023/05/15 05:12:48;;;;;;;21.33;13.93;;;;;;;16.41;60.08;98936.53;4483068;31;20456;-87
2023/05/15 05:15:13;;;;;;;21.37;13.77;;;;;;;16.46;60.08;98940.50;4483647;32;20096;-87
2023/05/15 05:17:39;;;;;;;19.83;13.65;;;;;;;16.40;60.08;98945.34;4482837;32;26748;-87
2023/05/15 05:20:07;;;;;;;19.45;12.35;;;;;;;16.45;60.07;98944.09;4483583;32;20097;-87
2023/05/15 05:22:33;;;;;;;20.92;14.50;;;;;;;16.53;60.08;98954.06;4483171;32;20120;-86
2023/05/15 05:24:58;;;;;;;21.45;12.88;;;;;;;16.65;60.09;98945.34;4483974;32;28087;-87
2023/05/15 05:27:23;;;;;;;18.10;12.25;;;;;;;16.76;60.09;98949.87;4470104;32;20107;-87
2023/05/15 05:29:49;;;;;;;19.00;12.20;;;;;;;16.62;60.08;98950.81;4469561;32;24790;-87
2023/05/15 05:32:14;;;;;;;18.37;11.60;;;;;;;16.76;60.09;98950.69;4482555;32;20158;-87
2023/05/15 05:34:40;;;;;;;15.30;10.18;;;;;;;16.67;60.09;98940.84;4482263;32;23212;-87
2023/05/15 05:37:05;;;;;;;16.15;10.50;;;;;;;16.79;60.09;98929.47;4482414;32;21944;-87
2023/05/15 05:39:31;;;;;;;14.95;9.80;;;;;;;16.93;60.09;98925.87;4470359;32;20203;-88
2023/05/15 05:41:56;;;;;;;15.35;10.57;;;;;;;16.98;60.10;98915.84;4456552;32;20165;-86
2023/05/15 05:44:21;;;;;;;14.73;10.50;;;;;;;17.04;60.11;98917.22;4482964;32;20119;-87
2023/05/15 05:46:47;;;;;;;19.95;11.02;;;;;;;17.14;60.11;98934.00;4469758;32;20194;-88
2023/05/15 05:49:12;;;;;;;17.52;11.32;;;;;;;17.21;60.11;98929.97;4469877;32;20144;-87
2023/05/15 05:51:38;;;;;;;17.05;10.27;;;;;;;17.22;60.11;98934.28;4482517;32;20152;-88
2023/05/15 05:54:03;;;;;;;17.62;10.73;;;;;;;17.38;60.12;98939.28;4483149;32;20131;-88
2023/05/15 05:56:29;;;;;;;13.65;10.15;;;;;;;17.37;60.12;98946.34;4470533;32;20106;-89
2023/05/15 05:58:55;;;;;;;15.68;9.85;;;;;;;17.42;60.13;98941.59;4486509;31;20244;-88
2023/05/15 06:01:21;;;;;;;13.93;9.57;;;;;;;17.73;60.15;98947.25;4457150;32;20168;-88
2023/05/15 06:03:46;;;;;;;15.35;9.30;;;;;;;17.72;60.14;98937.69;4456828;32;20072;-89
2023/05/15 06:06:11;;;;;;;12.85;8.18;;;;;;;18.07;60.17;98933.25;4469489;32;20135;-89
2023/05/15 06:08:37;;;;;;;11.75;8.27;;;;;;;18.29;60.17;98935.09;4456215;32;20149;-87
2023/05/15 06:11:02;;;;;;;12.45;7.97;;;;;;;18.26;60.18;98937.97;4482178;32;20139;-89
2023/05/15 06:13:28;;;;;;;12.27;8.10;;;;;;;18.50;60.19;98942.31;4456388;32;20119;-89
2023/05/15 06:15:53;;;;;;;9.68;6.55;;;;;;;18.62;60.18;98951.88;4466984;32;20441;-89
2023/05/15 06:18:19;;;;;;;10.95;6.60;;;;;;;18.70;60.20;98952.19;4441103;32;20490;-90
2023/05/15 06:20:45;;;;;;;11.40;7.22;;;;;;;18.67;60.19;98945.31;4453128;32;20121;-89
2023/05/15 06:23:11;;;;;;;8.82;6.85;;;;;;;18.63;60.19;98941.25;4469648;32;20466;-90
2023/05/15 06:25:36;;;;;;;10.30;6.97;;;;;;;18.84;60.20;98949.28;4455463;32;22025;-88
2023/05/15 06:28:01;;;;;;;8.77;6.35;;;;;;;18.69;60.19;98955.75;4467638;32;20157;-89
2023/05/15 06:30:27;;;;;;;10.95;7.15;;;;;;;18.81;60.20;98959.25;4454888;32;20124;-90
2023/05/15 06:32:52;;;;;;;10.27;6.80;;;;;;;18.67;60.19;98955.88;4468666;32;20118;-89
2023/05/15 06:35:18;;;;;;;8.15;6.22;;;;;;;18.56;60.19;98958.47;4453459;32;20126;-91
2023/05/15 06:37:43;;;;;;;9.93;6.10;;;;;;;18.78;60.20;98952.41;4460120;32;20120;-89
2023/05/15 06:40:09;;;;;;;10.18;6.00;;;;;;;18.73;60.20;98945.84;4454828;32;20128;-90
2023/05/15 06:42:34;;;;;;;7.95;5.95;;;;;;;18.98;60.21;98942.94;4457135;32;20112;-89
2023/05/15 06:45:00;;;;;;;6.32;4.97;;;;;;;18.82;60.20;98947.72;4479225;32;20143;-89
2023/05/15 06:47:25;;;;;;;11.85;7.07;;;;;;;18.94;60.21;98937.06;4471235;32;20127;-90
2023/05/15 06:49:52;;;;;;;9.63;6.57;;;;;;;19.30;60.22;98941.19;4457844;32;22106;-90
2023/05/15 06:52:19;;;;;;;9.93;6.93;;;;;;;19.32;60.23;98928.72;4456138;32;20118;-90
2023/05/15 06:54:44;;;;;;;10.85;6.90;;;;;;;19.15;60.21;98928.38;4453538;32;20516;-90
2023/05/15 06:57:10;;;;;;;11.98;6.37;;;;;;;19.19;60.22;98925.41;4458615;32;20132;-90
2023/05/15 06:59:35;;;;;;;9.20;6.32;;;;;;;18.93;60.21;98924.84;4471254;32;20116;-90
2023/05/15 07:02:01;;;;;;;9.90;6.65;;;;;;;19.25;60.23;98930.19;4484513;32;20146;-89
2023/05/15 07:04:27;;;;;;;8.70;5.65;;;;;;;19.35;60.23;98942.63;4461718;32;20080;-90
2023/05/15 07:06:53;;;;;;;7.05;5.40;;;;;;;19.33;60.23;98934.81;4456356;32;20183;-90
2023/05/15 07:09:18;;;;;;;9.57;6.60;;;;;;;19.37;60.23;98938.03;4444319;31;26929;-89
2023/05/15 07:11:44;;;;;;;8.23;5.25;;;;;;;19.52;60.24;98950.00;4455907;32;20445;-88
2023/05/15 07:14:09;;;;;;;9.40;5.82;;;;;;;19.70;60.25;98948.53;4467860;32;20129;-90
2023/05/15 07:16:35;;;;;;;8.00;5.45;;;;;;;19.61;60.23;98958.03;4472439;32;20152;-89
2023/05/15 07:19:00;;;;;;;7.72;5.68;;;;;;;19.87;60.26;98958.56;4460387;32;20464;-89
2023/05/15 07:21:25;;;;;;;8.07;5.55;;;;;;;20.00;60.26;98968.09;4475338;32;32557;-89
2023/05/15 07:23:51;;;;;;;6.47;5.00;;;;;;;19.99;60.26;98971.69;4472935;32;20172;-89
2023/05/15 07:26:16;;;;;;;7.25;5.50;;;;;;;19.93;60.25;98971.25;4457109;32;20160;-89
2023/05/15 07:28:42;;;;;;;6.82;5.25;;;;;;;20.07;60.26;98979.81;4482275;32;20125;-89
2023/05/15 07:31:07;;;;;;;7.45;5.18;;;;;;;20.30;60.28;98989.31;4484566;32;20167;-89
2023/05/15 07:33:32;;;;;;;7.70;5.60;;;;;;;20.25;60.28;98973.00;4469814;32;20126;-88
2023/05/15 07:35:58;;;;;;;7.85;5.60;;;;;;;20.12;60.27;98969.72;4454837;32;30549;-89
2023/05/15 07:38:23;;;;;;;6.25;3.90;;;;;;;20.41;60.29;98949.63;4469044;32;20123;-89
2023/05/15 07:40:49;;;;;;;7.62;4.45;;;;;;;20.39;60.28;98948.91;4471278;32;20151;-89
2023/05/15 07:43:14;;;;;;;8.63;4.10;;;;;;;20.52;60.29;98943.41;4470926;32;20080;-90
2023/05/15 07:45:40;;;;;;;4.78;4.00;;;;;;;20.79;60.31;98941.03;4465471;32;20112;-89
2023/05/15 07:48:16;;;;;;;4.87;3.58;;;;;;;21.01;60.31;98945.28;4451286;32;20161;-89
2023/05/15 07:50:41;;;;;;;7.00;3.97;;;;;;;21.21;60.32;98940.87;4455941;32;20131;-87
2023/05/15 07:53:07;;;;;;;5.00;3.42;;;;;;;21.24;60.32;98930.06;4469351;32;20084;-88
2023/05/15 07:55:32;;;;;;;4.60;3.33;;;;;;;21.18;60.33;98927.09;4469524;32;20132;-89
2023/05/15 07:57:57;;;;;;;5.60;3.62;;;;;;;21.09;60.31;98936.69;4457284;32;20156;-89
2023/05/15 08:00:23;;;;;;;5.10;3.00;;;;;;;21.26;60.33;98948.44;4454826;32;20170;-90
2023/05/15 08:02:49;;;;;;;4.85;3.70;;;;;;;21.22;60.32;98969.03;4466265;32;20092;-90
2023/05/15 08:05:15;;;;;;;6.12;3.50;;;;;;;21.23;60.32;98980.44;4470627;32;20134;-90
2023/05/15 08:07:40;;;;;;;5.43;3.50;;;;;;;21.32;60.33;98979.69;4471035;32;20173;-89
2023/05/15 08:10:07;;;;;;;4.75;3.67;;;;;;;21.28;60.33;98972.97;4483954;32;20437;-89
2023/05/15 08:12:32;;;;;;;4.72;3.53;;;;;;;21.42;60.34;98968.12;4483827;31;20096;-87
2023/05/15 08:14:58;;;;;;;4.20;3.55;;;;;;;21.45;60.34;98969.66;4483530;32;20157;-88
2023/05/15 08:17:24;;;;;;;5.40;4.05;;;;;;;21.49;60.34;98971.06;4470729;32;20088;-89
2023/05/15 08:19:50;;;;;;;4.62;3.47;;;;;;;21.43;60.34;98964.50;4485196;32;20118;-90
2023/05/15 08:22:15;;;;;;;4.55;3.55;;;;;;;21.24;60.33;98972.41;4486251;31;20127;-88
2023/05/15 08:24:41;;;;;;;6.32;3.92;;;;;;;21.48;60.33;98974.69;4472034;32;20134;-89
2023/05/15 08:27:07;;;;;;;4.12;3.25;;;;;;;21.75;60.36;98977.50;4470833;32;20415;-89
2023/05/15 08:29:33;;;;;;;3.92;2.90;;;;;;;21.89;60.36;98975.44;4470677;32;20088;-89
2023/05/15 08:32:00;;;;;;;7.80;2.72;;;;;;;21.99;60.36;98973.59;4484934;31;20088;-89
2023/05/15 08:34:25;;;;;;;4.47;2.42;;;;;;;22.09;60.37;98971.81;4483809;32;20116;-89
2023/05/15 08:36:51;;;;;;;3.25;2.40;;;;;;;22.31;60.38;98971.53;4470606;32;20158;-89
2023/05/15 08:39:16;;;;;;;4.80;2.80;;;;;;;22.49;60.40;98960.19;4483866;32;20142;-88
2023/05/15 08:41:47;;;;;;;3.62;2.58;;;;;;;22.66;60.41;98959.41;4457471;32;20403;-88
2023/05/15 08:44:12;;;;;;;2.97;2.40;;;;;;;22.71;60.40;98951.84;4484894;32;20123;-89
2023/05/15 08:46:38;;;;;;;3.37;2.30;;;;;;;22.75;60.41;98947.13;4474347;32;20501;-89
2023/05/15 08:49:28;;;;;;;3.55;2.72;;;;;;;22.83;60.41;98948.06;4457226;32;28279;-88
2023/05/15 08:51:54;;;;;;;2.15;1.95;;;;;;;22.73;60.41;98952.56;4446751;32;20115;-89
2023/05/15 08:54:19;;;;;;;4.00;2.70;;;;;;;22.65;60.41;98960.41;4467174;32;24575;-88
2023/05/15 08:56:45;;;;;;;2.35;2.15;;;;;;;22.67;60.41;98956.63;4469498;32;28824;-89
2023/05/15 08:59:10;;;;;;;2.92;2.25;;;;;;;22.93;60.42;98948.03;4469572;32;29893;-89
2023/05/15 09:01:36;;;;;;;3.17;2.45;;;;;;;23.00;60.42;98937.69;4483419;32;20100;-87
2023/05/15 09:04:01;;;;;;;4.35;3.30;;;;;;;22.88;60.42;98943.16;4457223;32;20152;-88
2023/05/15 09:06:27;;;;;;;5.12;3.03;;;;;;;22.56;60.39;98948.84;4483460;32;20491;-87
2023/05/15 09:08:53;;;;;;;3.65;2.95;;;;;;;22.55;60.39;98960.44;4473633;32;20451;-87
2023/05/15 09:11:18;;;;;;;3.42;2.70;;;;;;;22.60;60.40;98968.78;4458986;31;20100;-87
2023/05/15 09:13:44;;;;;;;3.50;2.90;;;;;;;22.28;60.39;98974.47;4454652;32;20486;-87
2023/05/15 09:16:09;;;;;;;2.87;2.42;;;;;;;22.50;60.40;98973.31;4481873;32;20481;-88
2023/05/15 09:18:34;;;;;;;2.65;2.40;;;;;;;22.56;60.39;98971.87;4454711;32;20134;-88
2023/05/15 09:21:24;;;;;;;5.22;2.87;;;;;;;22.48;60.39;98977.09;4459417;32;27158;-89
2023/05/15 09:23:49;;;;;;;4.80;3.07;;;;;;;22.63;60.40;98987.06;4483240;32;20479;-88
2023/05/15 09:26:14;;;;;;;4.82;3.35;;;;;;;22.34;60.39;98999.56;4454908;32;20131;-89
2023/05/15 09:28:40;;;;;;;3.15;2.40;;;;;;;22.30;60.38;98998.19;4479224;32;20085;-88
2023/05/15 09:31:07;;;;;;;3.80;2.25;;;;;;;22.14;60.38;99003.22;4457173;32;20114;-89
2023/05/15 09:33:41;;;;;;;3.12;2.05;;;;;;;22.13;60.38;99006.84;4458983;32;20503;-91
2023/05/15 09:36:07;;;;;;;2.60;2.00;;;;;;;22.20;60.38;99019.38;4442349;32;20523;-91
2023/05/15 09:38:33;;;;;;;2.40;1.87;;;;;;;22.05;60.37;99020.78;4453528;32;20093;-90
2023/05/15 09:41:05;;;;;;;2.67;2.00;;;;;;;22.21;60.38;99014.91;4457432;32;20110;-92
2023/05/15 09:43:35;;;;;;;1.85;1.58;;;;;;;22.48;60.39;99022.16;4457578;32;20496;-89
2023/05/15 09:46:01;;;;;;;1.70;1.50;;;;;;;22.47;60.40;99020.47;4470328;32;20108;-90
2023/05/15 09:48:27;;;;;;;3.00;1.60;;;;;;;22.37;60.39;99018.66;4470178;32;20467;-90
2023/05/15 09:50:53;;;;;;;1.87;1.35;;;;;;;22.11;60.38;99017.56;4454703;32;20093;-89
2023/05/15 09:53:18;;;;;;;1.87;1.45;;;;;;;21.96;60.37;99016.28;4483239;32;20154;-90
2023/05/15 09:55:44;;;;;;;3.35;1.58;;;;;;;21.93;60.36;99019.22;4450241;32;20156;-89
2023/05/15 09:58:14;;;;;;;2.72;1.40;;;;;;;22.03;60.38;99012.94;4455555;32;20243;-90
2023/05/15 10:00:40;;;;;;;1.98;1.40;;;;;;;22.14;60.38;99022.59;4455141;32;20120;-90
2023/05/15 10:03:06;;;;;;;2.92;1.02;;;;;;;22.21;60.38;99020.22;4481466;32;20169;-90
2023/05/15 10:05:32;;;;;;;0.88;0.80;;;;;;;22.27;60.39;99024.97;4456416;32;20104;-89
2023/05/15 10:07:57;;;;;;;1.62;0.90;;;;;;;22.23;60.38;99021.75;4472675;32;20102;-89
2023/05/15 10:10:23;;;;;;;1.42;1.00;;;;;;;22.37;60.39;99017.84;4471591;32;20106;-90
2023/05/15 10:12:49;;;;;;;2.85;1.10;;;;;;;22.55;60.40;99017.94;4472562;32;20104;-89
2023/05/15 10:15:16;;;;;;;1.15;1.05;;;;;;;22.67;60.41;99009.66;4457179;32;20167;-90
2023/05/15 10:17:41;;;;;;;1.15;1.00;;;;;;;22.41;60.39;99016.56;4456780;32;20088;-90
2023/05/15 10:20:09;;;;;;;1.40;1.15;;;;;;;22.30;60.38;99017.56;4448670;32;20156;-90
2023/05/15 10:22:36;;;;;;;4.68;1.52;;;;;;;22.42;60.40;99017.41;4455379;32;20128;-89
2023/05/15 10:25:06;;;;;;;2.20;1.60;;;;;;;22.30;60.39;99014.91;4479781;32;20444;-90
2023/05/15 10:27:34;;;;;;;2.45;1.87;;;;;;;22.27;60.39;99024.97;4448854;32;20089;-90
2023/05/15 10:30:00;;;;;;;3.33;1.30;;;;;;;22.15;60.38;99020.78;4459518;32;20178;-90
2023/05/15 10:32:25;;;;;;;3.50;1.40;;;;;;;22.14;60.38;99019.94;4456413;32;20147;-90
2023/05/15 10:34:51;;;;;;;4.20;1.35;;;;;;;22.29;60.39;99026.50;4458690;32;20131;-89
2023/05/15 10:37:16;;;;;;;1.37;1.27;;;;;;;22.32;60.39;99028.88;4467902;32;20138;-90
2023/05/15 10:39:42;;;;;;;2.80;1.45;;;;;;;22.37;60.39;99021.31;4461590;32;32839;-90
2023/05/15 10:42:07;;;;;;;1.62;1.08;;;;;;;22.45;60.40;99033.03;4457320;32;26610;-87
2023/05/15 10:44:32;;;;;;;1.12;1.00;;;;;;;22.64;60.41;99033.84;4471192;32;20437;-89
2023/05/15 10:46:58;;;;;;;1.83;1.15;;;;;;;22.42;60.41;99034.16;4468609;32;20143;-87
2023/05/15 10:49:24;;;;;;;4.00;1.08;;;;;;;22.66;60.41;99021.25;4479227;32;20141;-89
2023/05/15 10:51:51;;;;;;;2.10;1.48;;;;;;;22.53;60.40;99026.06;4470872;32;20124;-89
2023/05/15 10:54:16;;;;;;;2.05;1.52;;;;;;;22.56;60.40;99028.41;4463211;32;20560;-89
2023/05/15 10:56:42;;;;;;;2.22;1.77;;;;;;;22.60;60.41;99029.81;4467384;32;20096;-88
2023/05/15 10:59:09;;;;;;;2.17;1.40;;;;;;;22.61;60.41;99020.03;4458158;32;20112;-88
2023/05/15 11:01:38;;;;;;;1.92;1.50;;;;;;;22.62;60.40;99027.84;4481805;31;20488;-89
2023/05/15 11:04:10;;;;;;;2.30;1.63;;;;;;;22.87;60.41;99018.44;4452314;32;20108;-88
2023/05/15 11:06:45;;;;;;;1.98;1.80;;;;;;;23.03;60.44;99017.84;4473440;32;20163;-89
2023/05/15 11:09:26;;;;;;;3.50;1.25;;;;;;;23.08;60.43;99017.41;4458352;32;20474;-89
2023/05/15 11:11:51;;;;;;;1.40;1.00;;;;;;;23.21;60.44;99017.91;4483941;32;20190;-88
2023/05/15 11:14:23;;;;;;;1.23;1.10;;;;;;;23.17;60.43;99019.16;4485756;31;20427;-88
2023/05/15 11:16:51;;;;;;;3.78;1.80;;;;;;;23.01;60.42;99019.81;4468870;32;20159;-88
2023/05/15 11:19:49;;;;;;;2.65;1.70;;;;;;;22.92;60.43;99010.87;4483169;32;20098;-90
2023/05/15 11:22:37;;;;;;;4.80;1.77;;;;;;;22.61;60.41;99007.59;4453936;32;20116;-88
2023/05/15 11:25:11;;;;;;;2.40;1.58;;;;;;;22.64;60.40;98998.50;4472789;32;20119;-89